Time;durP1;ratioP1;P1;durP2;ratioP2;P2;SDS_P1;SDS_P2;PMS_P1;PMS_P2;Temp;Humidity;BMP_temperature;BMP_pressure;BME280_temperature;BME280_humidity;BME280_pressure;Samples;Min_cycle;Max_cycle;Signal;HPM_P1;HPM_P2
2022/02/13 00:00:50;;;;;;;;;;;;;;;21.40;39.87;101810.06;5080921;28;4223;-57
2022/02/13 00:03:16;;;;;;;;;;;;;;;21.41;39.86;101805.03;5080809;28;4087;-56
2022/02/13 00:05:42;;;;;;;;;;;;;;;21.41;39.74;101799.28;5084056;28;5335;-57
2022/02/13 00:08:09;;;;;;;;;;;;;;;21.39;39.90;101802.75;5079530;28;4212;-58
2022/02/13 00:10:35;;;;;;;;;;;;;;;21.40;39.77;101797.75;5081307;28;4144;-57
2022/02/13 00:13:01;;;;;;;;;;;;;;;21.38;40.03;101789.00;5080743;28;4258;-57
2022/02/13 00:15:28;;;;;;;;;;;;;;;21.39;39.85;101784.72;5082440;28;4537;-57
2022/02/13 00:17:54;;;;;;;;;;;;;;;21.39;39.73;101781.84;5078879;28;5267;-57
2022/02/13 00:20:23;;;;;;;;;;;;;;;21.40;40.06;101777.59;5075028;28;6327;-57
2022/02/13 00:22:50;;;;;;;;;;;;;;;21.42;40.22;101766.19;5081334;28;5209;-57
2022/02/13 00:25:17;;;;;;;;;;;;;;;21.42;39.91;101766.19;5080623;28;4100;-57
2022/02/13 00:27:45;;;;;;;;;;;;;;;21.42;40.21;101766.94;5078828;28;4125;-57
2022/02/13 00:30:13;;;;;;;;;;;;;;;21.42;39.94;101751.78;5078533;28;4430;-58
2022/02/13 00:32:40;;;;;;;;;;;;;;;21.41;39.99;101753.16;5079116;28;4032;-58
2022/02/13 00:35:06;;;;;;;;;;;;;;;21.41;39.97;101744.53;5084688;28;4149;-58
2022/02/13 00:37:34;;;;;;;;;;;;;;;21.40;40.02;101746.66;5067318;28;4231;-57
2022/02/13 00:40:00;;;;;;;;;;;;;;;21.41;40.06;101739.50;5081339;28;4262;-57
2022/02/13 00:42:27;;;;;;;;;;;;;;;21.41;40.15;101739.50;5085447;28;5294;-57
2022/02/13 00:44:53;;;;;;;;;;;;;;;21.38;40.05;101737.13;5084488;28;4221;-57
2022/02/13 00:47:19;;;;;;;;;;;;;;;21.40;40.24;101734.38;5086647;28;4125;-57
2022/02/13 00:49:46;;;;;;;;;;;;;;;21.40;40.01;101722.84;5086273;28;4214;-57
2022/02/13 00:52:12;;;;;;;;;;;;;;;21.40;40.04;101722.84;5085162;28;5178;-57
2022/02/13 00:54:39;;;;;;;;;;;;;;;21.39;39.92;101718.44;5079097;28;4166;-57
2022/02/13 00:57:05;;;;;;;;;;;;;;;21.39;39.97;101715.56;5084539;28;4172;-57
2022/02/13 00:59:32;;;;;;;;;;;;;;;21.38;39.92;101700.41;5085410;28;4171;-57
2022/02/13 01:01:58;;;;;;;;;;;;;;;21.40;40.01;101702.66;5082466;28;4143;-57
2022/02/13 01:04:25;;;;;;;;;;;;;;;21.40;40.16;101699.78;5085160;28;4203;-57
2022/02/13 01:06:51;;;;;;;;;;;;;;;21.41;40.24;101698.41;5085717;28;4214;-57
2022/02/13 01:09:17;;;;;;;;;;;;;;;21.41;40.16;101696.28;5083572;28;4177;-57
2022/02/13 01:11:44;;;;;;;;;;;;;;;21.42;40.21;101697.06;5085414;28;5460;-57
2022/02/13 01:14:10;;;;;;;;;;;;;;;21.43;40.36;101698.53;5085527;28;5258;-58
2022/02/13 01:16:37;;;;;;;;;;;;;;;21.42;40.29;101691.28;5084499;28;4123;-57
2022/02/13 01:19:03;;;;;;;;;;;;;;;21.41;40.28;101695.53;5080341;28;4210;-57
2022/02/13 01:21:29;;;;;;;;;;;;;;;21.40;40.32;101688.25;5080251;28;5258;-57
2022/02/13 01:23:56;;;;;;;;;;;;;;;21.40;40.29;101689.03;5086335;28;4028;-57
2022/02/13 01:26:23;;;;;;;;;;;;;;;21.41;40.16;101689.78;5083037;28;4210;-57
2022/02/13 01:28:50;;;;;;;;;;;;;;;21.40;40.31;101685.38;5084982;28;4143;-58
2022/02/13 01:31:16;;;;;;;;;;;;;;;21.40;40.22;101685.38;5086297;28;4149;-57
2022/02/13 01:33:42;;;;;;;;;;;;;;;21.39;40.45;101683.88;5082134;28;4305;-58
2022/02/13 01:36:11;;;;;;;;;;;;;;;21.37;40.34;101678.72;5084580;28;5739;-58
2022/02/13 01:38:37;;;;;;;;;;;;;;;21.37;40.25;101672.97;5078910;28;4240;-57
2022/02/13 01:41:04;;;;;;;;;;;;;;;21.38;40.31;101667.97;5080686;28;4345;-58
2022/02/13 01:43:33;;;;;;;;;;;;;;;21.38;40.18;101667.97;5067719;28;4120;-57
2022/02/13 01:45:59;;;;;;;;;;;;;;;21.38;40.26;101662.97;5085374;28;4244;-58
2022/02/13 01:48:25;;;;;;;;;;;;;;;21.39;40.34;101663.69;5073747;28;5145;-57
2022/02/13 01:50:52;;;;;;;;;;;;;;;21.40;40.58;101659.44;5085339;28;5354;-57
2022/02/13 01:53:38;;;;;;;;;;;;;;;21.40;40.57;101654.47;5085764;28;4159;-57
2022/02/13 01:56:05;;;;;;;;;;;;;;;21.41;40.53;101652.31;5083543;28;5127;-58
2022/02/13 01:58:32;;;;;;;;;;;;;;;21.41;40.52;101649.44;5083924;28;4072;-58
2022/02/13 02:00:59;;;;;;;;;;;;;;;21.41;40.64;101637.91;5081545;28;4229;-58
2022/02/13 02:03:25;;;;;;;;;;;;;;;21.40;40.46;101639.28;5082758;28;6219;-58
2022/02/13 02:05:51;;;;;;;;;;;;;;;21.40;40.70;101642.16;5085487;28;4207;-57
2022/02/13 02:08:18;;;;;;;;;;;;;;;21.40;40.65;101642.16;5082450;28;5328;-58
2022/02/13 02:10:44;;;;;;;;;;;;;;;21.38;40.68;101637.03;5080185;28;4176;-58
2022/02/13 02:13:12;;;;;;;;;;;;;;;21.39;40.62;101635.63;5057508;28;4188;-58
2022/02/13 02:15:38;;;;;;;;;;;;;;;21.40;40.58;101633.53;5080017;28;4088;-58
2022/02/13 02:18:05;;;;;;;;;;;;;;;21.40;40.61;101625.66;5080150;28;4530;-58
2022/02/13 02:20:32;;;;;;;;;;;;;;;21.41;40.67;101626.38;5086861;28;4139;-58
2022/02/13 02:22:58;;;;;;;;;;;;;;;21.40;40.74;101619.13;5079950;28;4117;-58
2022/02/13 02:25:24;;;;;;;;;;;;;;;21.40;40.65;101619.13;5082501;28;4464;-58
2022/02/13 02:27:51;;;;;;;;;;;;;;;21.39;40.61;101611.84;5082823;28;5425;-58
2022/02/13 02:30:17;;;;;;;;;;;;;;;21.38;40.86;101607.47;5077495;28;6129;-57
2022/02/13 02:32:45;;;;;;;;;;;;;;;21.38;40.82;101604.59;5083790;28;4212;-57
2022/02/13 02:35:12;;;;;;;;;;;;;;;21.39;40.89;101601.06;5077527;28;4141;-59
2022/02/13 02:37:38;;;;;;;;;;;;;;;21.40;40.81;101590.31;5086164;28;4230;-58
2022/02/13 02:40:05;;;;;;;;;;;;;;;21.40;40.85;101582.44;5084937;28;4243;-58
2022/02/13 02:42:31;;;;;;;;;;;;;;;21.42;40.86;101593.31;5084738;28;5178;-58
2022/02/13 02:44:58;;;;;;;;;;;;;;;21.41;40.85;101589.66;5084382;28;5312;-58
2022/02/13 02:47:24;;;;;;;;;;;;;;;21.40;40.84;101579.53;5084043;28;4236;-58
2022/02/13 02:49:50;;;;;;;;;;;;;;;21.39;40.91;101574.38;5085938;28;5766;-57
2022/02/13 02:52:18;;;;;;;;;;;;;;;21.39;40.96;101565.75;5084755;28;5372;-58
2022/02/13 02:54:45;;;;;;;;;;;;;;;21.39;40.80;101571.50;5081387;28;4090;-58
2022/02/13 02:57:12;;;;;;;;;;;;;;;21.38;41.00;101570.75;5084391;28;5211;-59
2022/02/13 02:59:38;;;;;;;;;;;;;;;21.40;40.78;101578.78;5084418;28;4206;-58
2022/02/13 03:02:05;;;;;;;;;;;;;;;21.40;40.83;101567.25;5079400;28;4114;-58
2022/02/13 03:04:31;;;;;;;;;;;;;;;21.39;41.07;101565.75;5086163;28;4070;-58
2022/02/13 03:06:58;;;;;;;;;;;;;;;21.29;41.02;101552.28;5083573;28;3964;-58
2022/02/13 03:09:24;;;;;;;;;;;;;;;21.40;40.94;101567.25;5080662;28;4160;-58
2022/02/13 03:11:50;;;;;;;;;;;;;;;21.42;40.84;101553.00;5084490;28;4338;-59
2022/02/13 03:14:17;;;;;;;;;;;;;;;21.42;40.93;101544.34;5083314;28;4179;-58
2022/02/13 03:16:43;;;;;;;;;;;;;;;21.41;41.16;101546.44;5073348;28;4211;-58
2022/02/13 03:19:11;;;;;;;;;;;;;;;21.40;41.16;101544.97;5078976;28;4174;-59
2022/02/13 03:21:38;;;;;;;;;;;;;;;21.39;41.26;101545.56;5082382;28;4183;-58
2022/02/13 03:24:07;;;;;;;;;;;;;;;21.36;41.30;101550.47;5083215;28;4538;-58
2022/02/13 03:26:33;;;;;;;;;;;;;;;21.37;41.33;101545.47;5081073;28;4503;-58
2022/02/13 03:29:00;;;;;;;;;;;;;;;21.34;41.32;101542.47;5080074;28;4285;-58
2022/02/13 03:31:26;;;;;;;;;;;;;;;21.36;41.29;101538.22;5082016;28;4143;-58
2022/02/13 03:33:53;;;;;;;;;;;;;;;21.36;41.25;101543.97;5079565;28;4250;-58
2022/02/13 03:36:19;;;;;;;;;;;;;;;21.36;41.17;101538.22;5075670;28;4159;-58
2022/02/13 03:38:45;;;;;;;;;;;;;;;21.36;41.11;101538.22;5082741;28;4198;-58
2022/02/13 03:41:12;;;;;;;;;;;;;;;21.38;41.32;101532.56;5083636;28;4132;-59
2022/02/13 03:43:38;;;;;;;;;;;;;;;21.37;41.12;101523.16;5082125;28;4240;-58
2022/02/13 03:46:06;;;;;;;;;;;;;;;21.39;41.37;101519.66;5083281;28;5183;-61
2022/02/13 03:48:33;;;;;;;;;;;;;;;21.38;41.24;101510.25;5082483;28;5258;-58
2022/02/13 03:50:59;;;;;;;;;;;;;;;21.40;41.21;101518.28;5085235;28;4116;-58
2022/02/13 03:53:25;;;;;;;;;;;;;;;21.40;41.06;101512.50;5080897;28;4096;-58
2022/02/13 03:55:52;;;;;;;;;;;;;;;21.41;41.38;101516.91;5083346;28;4290;-58
2022/02/13 03:58:18;;;;;;;;;;;;;;;21.41;41.53;101505.38;5083078;28;4153;-58
2022/02/13 04:00:45;;;;;;;;;;;;;;;21.40;41.43;101503.88;5081667;28;3984;-58
2022/02/13 04:03:11;;;;;;;;;;;;;;;21.40;41.48;101504.63;5083476;28;4228;-58
2022/02/13 04:05:38;;;;;;;;;;;;;;;21.40;41.57;101498.09;5086160;28;4170;-58
2022/02/13 04:08:04;;;;;;;;;;;;;;;21.37;41.48;101494.34;5087410;28;4268;-58
2022/02/13 04:10:32;;;;;;;;;;;;;;;21.38;41.58;101490.09;5084551;28;4139;-58
2022/02/13 04:12:59;;;;;;;;;;;;;;;21.38;41.74;101492.97;5090564;28;4221;-58
2022/02/13 04:15:25;;;;;;;;;;;;;;;21.37;41.76;101482.09;5085413;28;4125;-58
2022/02/13 04:17:52;;;;;;;;;;;;;;;21.37;41.71;101485.69;5086789;28;5291;-58
2022/02/13 04:20:20;;;;;;;;;;;;;;;21.37;41.83;101487.84;5088959;28;5387;-58
2022/02/13 04:22:46;;;;;;;;;;;;;;;21.36;41.62;101474.84;5085605;28;4070;-58
2022/02/13 04:25:12;;;;;;;;;;;;;;;21.36;41.71;101483.47;5083161;28;4269;-58
2022/02/13 04:27:40;;;;;;;;;;;;;;;21.37;41.61;101493.59;5089217;28;4126;-58
2022/02/13 04:30:08;;;;;;;;;;;;;;;21.36;41.64;101492.13;5085911;28;4457;-58
2022/02/13 04:32:34;;;;;;;;;;;;;;;21.37;41.69;101482.81;5085566;28;4211;-59
2022/02/13 04:35:01;;;;;;;;;;;;;;;21.38;41.56;101484.34;5087570;28;4279;-58
2022/02/13 04:37:27;;;;;;;;;;;;;;;21.38;41.65;101486.47;5086791;28;4179;-58
2022/02/13 04:39:54;;;;;;;;;;;;;;;21.39;41.60;101485.06;5083325;28;4243;-58
2022/02/13 04:42:23;;;;;;;;;;;;;;;21.40;41.77;101475.06;5086593;28;4345;-58
2022/02/13 04:44:50;;;;;;;;;;;;;;;21.40;41.80;101480.81;5087067;28;4201;-58
2022/02/13 04:47:16;;;;;;;;;;;;;;;21.38;41.92;101472.06;5085624;28;4113;-58
2022/02/13 04:49:42;;;;;;;;;;;;;;;21.39;41.75;101467.78;5083130;28;4351;-59
2022/02/13 04:52:10;;;;;;;;;;;;;;;21.39;41.99;101456.25;5084846;28;5394;-59
2022/02/13 04:54:36;;;;;;;;;;;;;;;21.38;41.97;101460.53;5087789;28;5344;-58
2022/02/13 04:57:02;;;;;;;;;;;;;;;21.38;41.90;101449.00;5085479;28;4166;-57
2022/02/13 04:59:33;;;;;;;;;;;;;;;21.37;41.90;101448.25;5087470;28;5314;-59
2022/02/13 05:02:00;;;;;;;;;;;;;;;21.38;41.82;101449.75;5089398;28;4236;-58
2022/02/13 05:04:29;;;;;;;;;;;;;;;21.38;41.79;101443.25;5084606;28;5383;-58
2022/02/13 05:06:55;;;;;;;;;;;;;;;21.38;42.08;101443.25;5084460;28;4169;-58
2022/02/13 05:09:22;;;;;;;;;;;;;;;21.37;41.79;101438.88;5086985;28;4164;-58
2022/02/13 05:11:48;;;;;;;;;;;;;;;21.37;41.84;101430.22;5076810;28;4135;-58
2022/02/13 05:14:14;;;;;;;;;;;;;;;21.37;41.96;101424.47;5086511;28;4246;-58
2022/02/13 05:16:41;;;;;;;;;;;;;;;21.38;41.76;101423.09;5085469;28;4092;-58
2022/02/13 05:19:07;;;;;;;;;;;;;;;21.38;41.82;101414.44;5066425;28;4263;-60
2022/02/13 05:21:34;;;;;;;;;;;;;;;21.38;41.77;101408.69;5081216;28;4053;-58
2022/02/13 05:24:00;;;;;;;;;;;;;;;21.38;41.84;101402.91;5082446;28;4884;-58
2022/02/13 05:26:26;;;;;;;;;;;;;;;21.39;41.71;101399.38;5083942;28;4096;-58
2022/02/13 05:28:53;;;;;;;;;;;;;;;21.41;41.80;101407.41;5086448;28;4182;-58
2022/02/13 05:31:19;;;;;;;;;;;;;;;21.41;41.67;101413.19;5084160;28;4393;-58
2022/02/13 05:33:46;;;;;;;;;;;;;;;21.41;41.66;101410.31;5088517;28;4302;-58
2022/02/13 05:36:12;;;;;;;;;;;;;;;21.40;41.79;101409.56;5083500;28;5302;-59
2022/02/13 05:38:38;;;;;;;;;;;;;;;21.40;41.89;101411.66;5083223;28;4049;-58
2022/02/13 05:41:05;;;;;;;;;;;;;;;21.39;41.96;101398.63;5085441;28;4397;-58
2022/02/13 05:43:32;;;;;;;;;;;;;;;21.39;41.86;101401.53;5087011;28;4230;-58
2022/02/13 05:45:58;;;;;;;;;;;;;;;21.38;41.79;101402.91;5084608;28;4091;-58
2022/02/13 05:48:25;;;;;;;;;;;;;;;21.38;41.92;101394.28;5082412;28;4277;-58
2022/02/13 05:50:52;;;;;;;;;;;;;;;21.38;41.86;101391.41;5087063;28;4389;-58
2022/02/13 05:53:18;;;;;;;;;;;;;;;21.36;42.27;101394.91;5083538;28;4325;-58
2022/02/13 05:55:45;;;;;;;;;;;;;;;21.36;42.08;101394.91;5087909;28;4681;-58
2022/02/13 05:58:11;;;;;;;;;;;;;;;21.37;42.02;101395.66;5085107;28;4128;-58
2022/02/13 06:00:37;;;;;;;;;;;;;;;21.36;41.94;101382.66;5084358;28;6411;-58
2022/02/13 06:03:04;;;;;;;;;;;;;;;21.36;41.89;101365.38;5085505;28;4168;-58
2022/02/13 06:05:30;;;;;;;;;;;;;;;21.37;41.89;101355.31;5084701;28;5291;-58
2022/02/13 06:07:57;;;;;;;;;;;;;;;21.37;41.92;101340.91;5085964;28;4154;-58
2022/02/13 06:10:23;;;;;;;;;;;;;;;21.37;41.93;101341.66;5082137;28;4187;-58
2022/02/13 06:12:50;;;;;;;;;;;;;;;21.39;42.09;101352.53;5084856;28;4244;-58
2022/02/13 06:15:16;;;;;;;;;;;;;;;21.38;41.74;101351.81;5086469;28;4183;-58
2022/02/13 06:17:42;;;;;;;;;;;;;;;21.39;41.66;101349.66;5085393;28;4294;-58
2022/02/13 06:20:09;;;;;;;;;;;;;;;21.38;41.81;101346.03;5085146;28;4589;-59
2022/02/13 06:22:35;;;;;;;;;;;;;;;21.40;41.70;101339.66;5085505;28;3978;-58
2022/02/13 06:25:01;;;;;;;;;;;;;;;21.40;41.91;101345.41;5081862;28;4357;-58
2022/02/13 06:27:28;;;;;;;;;;;;;;;21.39;42.15;101353.28;5084748;28;4219;-58
2022/02/13 06:29:54;;;;;;;;;;;;;;;21.39;41.87;101343.91;5084931;28;5542;-59
2022/02/13 06:32:20;;;;;;;;;;;;;;;21.38;41.95;101333.78;5083598;28;4236;-58
2022/02/13 06:34:47;;;;;;;;;;;;;;;21.37;42.12;101333.00;5082219;28;5349;-59
2022/02/13 06:37:13;;;;;;;;;;;;;;;21.36;42.04;101342.31;5083454;28;4189;-59
2022/02/13 06:39:40;;;;;;;;;;;;;;;21.36;41.98;101336.56;5084770;28;4256;-59
2022/02/13 06:42:06;;;;;;;;;;;;;;;21.37;42.04;101343.78;5084217;28;4189;-58
2022/02/13 06:44:32;;;;;;;;;;;;;;;21.34;41.88;101329.28;5085665;28;4256;-58
2022/02/13 06:46:59;;;;;;;;;;;;;;;21.32;42.03;101332.06;5084498;28;4183;-58
2022/02/13 06:49:25;;;;;;;;;;;;;;;21.33;41.73;101330.69;5079441;28;4175;-58
2022/02/13 06:51:51;;;;;;;;;;;;;;;21.33;41.82;101336.44;5081056;28;4366;-58
2022/02/13 06:54:18;;;;;;;;;;;;;;;21.33;41.88;101345.09;5085357;28;4155;-58
2022/02/13 06:56:44;;;;;;;;;;;;;;;21.34;41.75;101346.56;5075570;28;4231;-58
2022/02/13 06:59:10;;;;;;;;;;;;;;;21.36;41.66;101348.06;5082833;28;4210;-58
2022/02/13 07:01:37;;;;;;;;;;;;;;;21.36;41.72;101348.81;5080136;28;4266;-58
2022/02/13 07:04:03;;;;;;;;;;;;;;;21.38;41.72;101351.06;5080795;28;4140;-58
2022/02/13 07:06:30;;;;;;;;;;;;;;;21.38;41.72;101351.06;5081429;28;4201;-58
2022/02/13 07:08:56;;;;;;;;;;;;;;;21.38;41.61;101346.03;5084642;28;4539;-58
2022/02/13 07:11:22;;;;;;;;;;;;;;;21.41;41.85;101346.91;5079102;28;5243;-58
2022/02/13 07:13:49;;;;;;;;;;;;;;;21.40;41.87;101339.66;5083085;28;4224;-58
2022/02/13 07:16:15;;;;;;;;;;;;;;;21.38;41.92;101333.78;5082976;28;4239;-58
2022/02/13 07:18:41;;;;;;;;;;;;;;;21.39;42.16;101336.00;5084180;28;5248;-58
2022/02/13 07:21:08;;;;;;;;;;;;;;;21.37;41.95;101326.50;5056955;28;4119;-59
2022/02/13 07:23:34;;;;;;;;;;;;;;;21.36;41.95;101313.50;5081211;28;4215;-58
2022/02/13 07:26:00;;;;;;;;;;;;;;;21.29;41.91;101316.09;5083066;28;4249;-59
2022/02/13 07:31:12;;;;;;;;;;;;;;;21.34;41.63;101311.25;5083547;28;4230;-60
2022/02/13 07:33:38;;;;;;;;;;;;;;;21.32;41.69;101300.38;5086017;28;4245;-59
2022/02/13 07:36:04;;;;;;;;;;;;;;;21.37;41.72;101303.47;5083354;28;4348;-59
2022/02/13 07:38:31;;;;;;;;;;;;;;;21.39;41.75;101295.66;5079382;28;4182;-59
2022/02/13 07:40:57;;;;;;;;;;;;;;;21.42;41.70;101308.81;5080907;28;4149;-61
2022/02/13 07:43:24;;;;;;;;;;;;;;;21.44;42.32;101319.69;5083059;28;5261;-60
2022/02/13 07:45:50;;;;;;;;;;;;;;;21.38;42.15;101316.50;5079171;28;4226;-61
2022/02/13 07:48:16;;;;;;;;;;;;;;;21.43;42.13;101321.81;5080778;28;5253;-61
2022/02/13 07:50:43;;;;;;;;;;;;;;;21.42;42.15;101313.84;5084823;28;4129;-61
2022/02/13 07:53:11;;;;;;;;;;;;;;;21.42;42.14;101305.19;5078339;28;5448;-60
2022/02/13 07:55:40;;;;;;;;;;;;;;;21.44;42.20;101296.63;5074599;28;4039;-60
2022/02/13 07:58:07;;;;;;;;;;;;;;;21.43;42.20;101290.13;5081128;28;4053;-60
2022/02/13 08:00:33;;;;;;;;;;;;;;;21.13;43.95;101303.75;5081523;28;4124;-60
2022/02/13 08:03:00;;;;;;;;;;;;;;;20.71;42.25;101300.19;5082568;28;6383;-60
2022/02/13 08:05:26;;;;;;;;;;;;;;;20.44;41.32;101300.91;5082693;28;4098;-59
2022/02/13 08:07:52;;;;;;;;;;;;;;;20.65;41.00;101297.00;5082371;28;4247;-60
2022/02/13 08:10:19;;;;;;;;;;;;;;;21.06;40.63;101288.31;5081217;28;4198;-59
2022/02/13 08:12:45;;;;;;;;;;;;;;;21.22;40.65;101284.75;5083152;28;4260;-60
2022/02/13 08:15:13;;;;;;;;;;;;;;;21.28;40.84;101288.69;5083423;28;5268;-60
2022/02/13 08:17:39;;;;;;;;;;;;;;;21.32;40.96;101288.84;5082928;28;4146;-59
2022/02/13 08:20:07;;;;;;;;;;;;;;;21.36;41.02;101287.59;5082365;28;4174;-60
2022/02/13 08:22:34;;;;;;;;;;;;;;;21.28;40.37;101285.03;5081823;28;5422;-59
2022/02/13 08:25:06;;;;;;;;;;;;;;;21.28;40.62;101288.69;5080091;28;4148;-62
2022/02/13 08:27:32;;;;;;;;;;;;;;;21.30;40.44;101288.78;5081991;28;4166;-62
2022/02/13 08:29:59;;;;;;;;;;;;;;;20.60;36.76;101292.41;5081705;28;4134;-59
2022/02/13 08:32:26;;;;;;;;;;;;;;;20.70;37.76;101285.03;5076762;28;4133;-60
2022/02/13 08:34:55;;;;;;;;;;;;;;;20.96;36.44;101278.41;5083862;28;4137;-60
2022/02/13 08:37:22;;;;;;;;;;;;;;;21.11;36.91;101289.25;5082086;28;4561;-60
2022/02/13 08:39:48;;;;;;;;;;;;;;;21.18;37.34;101282.41;5084829;28;4282;-60
2022/02/13 08:42:14;;;;;;;;;;;;;;;21.20;37.67;101285.38;5081621;28;4344;-60
2022/02/13 08:44:41;;;;;;;;;;;;;;;21.21;38.22;101286.88;5086328;28;4155;-60
2022/02/13 08:47:07;;;;;;;;;;;;;;;21.22;38.64;101282.59;5082111;28;4158;-61
2022/02/13 08:49:33;;;;;;;;;;;;;;;21.22;38.88;101282.59;5083690;28;4223;-60
2022/02/13 08:52:00;;;;;;;;;;;;;;;21.22;39.09;101276.84;5086010;28;4173;-59
2022/02/13 08:54:26;;;;;;;;;;;;;;;21.23;39.16;101277.59;5089046;28;4224;-60
2022/02/13 08:56:54;;;;;;;;;;;;;;;21.23;39.52;101284.09;5084073;28;5238;-60
2022/02/13 08:59:20;;;;;;;;;;;;;;;21.24;39.52;101287.72;5087262;28;4274;-60
2022/02/13 09:01:47;;;;;;;;;;;;;;;21.25;39.67;101298.59;5088034;28;4190;-60
2022/02/13 09:04:15;;;;;;;;;;;;;;;21.26;39.68;101294.34;5085989;28;5272;-60
2022/02/13 09:06:42;;;;;;;;;;;;;;;21.28;39.72;101297.31;5085239;28;4207;-60
2022/02/13 09:09:09;;;;;;;;;;;;;;;21.28;39.99;101287.91;5089139;28;4219;-60
2022/02/13 09:11:36;;;;;;;;;;;;;;;21.29;40.03;101286.53;5086006;28;4585;-60
2022/02/13 09:14:04;;;;;;;;;;;;;;;21.29;40.10;101286.53;5062412;28;4264;-60
2022/02/13 09:16:33;;;;;;;;;;;;;;;21.30;40.28;101282.25;5085343;28;4177;-60
2022/02/13 09:18:59;;;;;;;;;;;;;;;21.30;40.53;101296.66;5087502;28;4055;-60
2022/02/13 09:21:25;;;;;;;;;;;;;;;21.29;40.57;101293.03;5084852;28;4504;-60
2022/02/13 09:23:52;;;;;;;;;;;;;;;21.28;40.55;101296.56;5086255;28;4476;-60
2022/02/13 09:26:18;;;;;;;;;;;;;;;21.28;40.63;101285.78;5088139;28;5226;-60
2022/02/13 09:28:44;;;;;;;;;;;;;;;21.27;41.01;101301.56;5086753;28;4040;-60
2022/02/13 09:31:11;;;;;;;;;;;;;;;21.26;40.97;101294.34;5085212;28;4220;-60
2022/02/13 09:33:37;;;;;;;;;;;;;;;21.20;40.48;101285.38;5085120;28;5535;-64
2022/02/13 09:36:03;;;;;;;;;;;;;;;20.77;38.09;101291.13;5078820;28;5248;-61
2022/02/13 09:38:30;;;;;;;;;;;;;;;20.95;38.05;101282.69;5078824;28;4344;-61
2022/02/13 09:40:57;;;;;;;;;;;;;;;21.05;37.59;101286.06;5080801;28;4348;-61
2022/02/13 09:43:23;;;;;;;;;;;;;;;21.11;38.63;101287.09;5063523;28;5300;-65
2022/02/13 09:45:51;;;;;;;;;;;;;;;21.09;39.49;101274.75;5082912;28;5297;-63
2022/02/13 09:48:19;;;;;;;;;;;;;;;21.22;39.59;101276.84;5085492;28;4198;-63
2022/02/13 09:50:45;;;;;;;;;;;;;;;21.25;39.62;101277.69;5079326;28;4648;-62
2022/02/13 09:53:15;;;;;;;;;;;;;;;21.28;39.90;101268.50;5076820;28;4373;-62
2022/02/13 09:55:41;;;;;;;;;;;;;;;21.28;39.90;101262.75;5077225;28;4162;-63
2022/02/13 09:58:08;;;;;;;;;;;;;;;21.29;40.04;101264.22;5079052;28;5279;-63
2022/02/13 10:00:53;;;;;;;;;;;;;;;21.33;40.10;101257.94;5082865;28;4269;-64
2022/02/13 10:03:25;;;;;;;;;;;;;;;21.34;40.39;101254.38;5080260;28;5099;-64
2022/02/13 10:06:02;;;;;;;;;;;;;;;21.37;40.58;101263.13;5084626;28;4298;-62
2022/02/13 10:08:35;;;;;;;;;;;;;;;21.39;41.04;101260.34;5067761;28;4248;-62
2022/02/13 10:11:05;;;;;;;;;;;;;;;21.38;40.89;101261.75;5082027;28;4238;-63
2022/02/13 10:13:48;;;;;;;;;;;;;;;21.38;40.96;101253.13;5082396;28;4143;-62
2022/02/13 10:16:33;;;;;;;;;;;;;;;21.38;41.06;101253.84;5084924;28;4991;-62
2022/02/13 10:19:06;;;;;;;;;;;;;;;21.37;41.30;101228.56;5081146;28;4246;-62
2022/02/13 10:21:35;;;;;;;;;;;;;;;21.36;41.44;101236.47;5072278;28;4064;-63
2022/02/13 10:24:11;;;;;;;;;;;;;;;21.37;41.56;101234.31;5081662;28;4094;-63
2022/02/13 10:26:37;;;;;;;;;;;;;;;21.38;41.53;101236.56;5084117;28;4445;-62
2022/02/13 10:29:04;;;;;;;;;;;;;;;21.38;41.40;101236.56;5084913;28;4197;-63
2022/02/13 10:31:30;;;;;;;;;;;;;;;21.37;41.45;101234.31;5082270;28;4347;-63
2022/02/13 10:33:57;;;;;;;;;;;;;;;21.38;41.49;101230.06;5079333;28;4246;-65
2022/02/13 10:36:24;;;;;;;;;;;;;;;21.36;41.71;101216.31;5084946;28;4471;-63
2022/02/13 10:38:50;;;;;;;;;;;;;;;21.36;41.66;101216.31;5083293;28;4244;-64
2022/02/13 10:41:20;;;;;;;;;;;;;;;21.36;41.68;101212.69;5083248;28;4150;-63
2022/02/13 10:44:03;;;;;;;;;;;;;;;21.34;41.73;101208.28;5086821;28;4210;-63
2022/02/13 10:46:30;;;;;;;;;;;;;;;21.36;41.76;101215.56;5082944;28;4165;-63
2022/02/13 10:48:58;;;;;;;;;;;;;;;21.36;41.79;101206.91;5081999;28;4295;-63
2022/02/13 10:51:25;;;;;;;;;;;;;;;21.37;41.80;101205.53;5069567;28;4205;-63
2022/02/13 10:53:52;;;;;;;;;;;;;;;21.38;41.91;101207.75;5080297;28;4163;-65
2022/02/13 10:56:18;;;;;;;;;;;;;;;21.40;41.95;101210.00;5081407;28;4195;-66
2022/02/13 10:58:45;;;;;;;;;;;;;;;21.39;41.95;101202.75;5081662;28;4229;-66
2022/02/13 11:01:11;;;;;;;;;;;;;;;21.39;41.99;101196.97;5076025;28;5328;-65
2022/02/13 11:03:38;;;;;;;;;;;;;;;21.37;41.93;101188.97;5083577;28;4367;-65
2022/02/13 11:06:05;;;;;;;;;;;;;;;21.39;41.87;101180.44;5080254;28;4246;-62
2022/02/13 11:08:36;;;;;;;;;;;;;;;21.36;42.16;101189.63;5078126;28;4244;-61
2022/02/13 11:11:03;;;;;;;;;;;;;;;21.32;41.68;101176.50;5077295;28;4214;-63
2022/02/13 11:13:30;;;;;;;;;;;;;;;21.31;41.76;101175.03;5061810;28;4165;-67
2022/02/13 11:15:57;;;;;;;;;;;;;;;20.73;38.37;101176.56;5061567;28;5255;-62
2022/02/13 11:18:27;;;;;;;;;;;;;;;20.86;37.62;101167.13;5079290;28;4210;-62
2022/02/13 11:20:56;;;;;;;;;;;;;;;21.06;38.14;101166.63;5057721;28;4147;-62
2022/02/13 11:23:23;;;;;;;;;;;;;;;21.16;38.34;101163.47;5081208;28;4445;-63
2022/02/13 11:25:59;;;;;;;;;;;;;;;21.21;38.17;101160.16;5082966;28;4231;-63
2022/02/13 11:28:46;;;;;;;;;;;;;;;21.26;38.66;101166.88;5078839;28;4562;-61
2022/02/13 11:31:30;;;;;;;;;;;;;;;21.27;38.80;101169.06;5080655;28;5502;-63
2022/02/13 11:33:57;;;;;;;;;;;;;;;21.29;39.21;101159.81;5080442;28;4206;-61
2022/02/13 11:36:38;;;;;;;;;;;;;;;21.30;39.36;101159.16;5082780;28;4266;-62
2022/02/13 11:39:04;;;;;;;;;;;;;;;21.33;39.94;101151.34;5071893;28;4236;-62
2022/02/13 11:41:51;;;;;;;;;;;;;;;21.38;40.03;101152.28;5076868;28;4159;-62
2022/02/13 11:44:44;;;;;;;;;;;;;;;21.37;40.13;101159.44;5067984;28;5416;-62
2022/02/13 11:47:11;;;;;;;;;;;;;;;21.41;40.22;101153.88;5079590;28;5436;-61
2022/02/13 11:49:56;;;;;;;;;;;;;;;21.40;40.44;101147.38;5078387;28;5376;-63
2022/02/13 11:52:25;;;;;;;;;;;;;;;21.39;40.21;101133.59;5076989;28;4136;-62
2022/02/13 11:54:51;;;;;;;;;;;;;;;21.41;40.50;101122.19;5082747;28;4286;-62
2022/02/13 11:57:19;;;;;;;;;;;;;;;21.40;40.16;101112.06;5081560;28;4208;-61
2022/02/13 11:59:47;;;;;;;;;;;;;;;21.38;40.04;101104.06;5079706;28;4266;-62
2022/02/13 12:02:16;;;;;;;;;;;;;;;21.32;40.57;101100.88;5077083;28;5244;-64
2022/02/13 12:05:01;;;;;;;;;;;;;;;20.73;36.02;101095.22;5059274;28;4342;-64
2022/02/13 12:07:32;;;;;;;;;;;;;;;19.99;32.44;101097.28;5078113;28;4255;-61
2022/02/13 12:09:58;;;;;;;;;;;;;;;20.02;32.79;101091.00;5076554;28;4217;-61
2022/02/13 12:12:24;;;;;;;;;;;;;;;20.21;33.06;101094.81;5079711;28;4279;-64
2022/02/13 12:14:51;;;;;;;;;;;;;;;19.99;31.35;101089.41;5075236;28;4023;-59
2022/02/13 12:17:26;;;;;;;;;;;;;;;20.39;32.34;101081.34;5074300;28;5324;-63
2022/02/13 12:20:19;;;;;;;;;;;;;;;20.83;31.97;101076.31;5051137;28;5447;-63
2022/02/13 12:22:45;;;;;;;;;;;;;;;21.09;32.00;101076.06;5071764;28;4477;-60
2022/02/13 12:25:13;;;;;;;;;;;;;;;21.24;32.39;101078.22;5071528;28;4208;-62
2022/02/13 12:27:44;;;;;;;;;;;;;;;21.37;33.60;101067.25;5073556;28;5883;-60
2022/02/13 12:30:10;;;;;;;;;;;;;;;21.60;34.73;101069.03;5075496;28;5303;-63
2022/02/13 12:32:37;;;;;;;;;;;;;;;21.80;35.16;101052.63;5081937;28;4177;-65
2022/02/13 12:35:10;;;;;;;;;;;;;;;21.88;35.88;101044.34;5075639;28;4084;-67
2022/02/13 12:37:39;;;;;;;;;;;;;;;21.92;36.09;101044.53;5080026;28;4504;-62
2022/02/13 12:40:07;;;;;;;;;;;;;;;21.90;36.57;101032.16;5082596;28;5268;-65
2022/02/13 12:42:35;;;;;;;;;;;;;;;21.95;37.34;101028.03;5078587;28;4201;-62
2022/02/13 12:45:02;;;;;;;;;;;;;;;21.84;36.69;101026.84;5078679;28;4068;-61
2022/02/13 12:47:29;;;;;;;;;;;;;;;21.70;37.10;101021.22;5085554;28;4211;-61
2022/02/13 12:49:56;;;;;;;;;;;;;;;21.65;37.57;101016.69;5082139;28;5295;-61
2022/02/13 12:52:23;;;;;;;;;;;;;;;21.62;37.80;101017.97;5062214;28;5141;-60